PWSweather.com
Personal Weather Stations
Station Observations
KMICHEBO10
Cordwood Point, Lake Huron, Cheboygan, MI 49721

Cordwood Point, Lake HuronCheboygan, MI 49721

Lat: 45.663372, Lon: -84.3327789

Elevation: 584

Station Type: Davis Vantage Pro2 Wireless

http://www.lakehuronweather.org

Latest ConditionsUpdated 5:00:02 PM EST Saturday, Feb 23, 2019
Currently Today's Max Today's Min Today's Average
Temperature 31.8°F-0.1°C 35.4°F1.9°C 17.7°F-7.9°C 26.3°F-3.2°C
Dew Point 28.7°F-1.8°C 29.8°F-1.2°C 15.8°F-9.0°C 23.4°F-4.8°C
Winds 3.5 mph SSE5.6 kmh SSE 6.9 mph -11.1 kmh - - 1.7 mph 2.7 kmh
Wind Gusts 5.8 mph9.3 kmh 15.0 mph24.1 kmh - -
Humidity 88% 94% 75% 89%
Pressure 30.02 in1016.6 mb 30.40 in1029.5 mb 29.98 in1015.2 mb -
Precipitation - 0.01 in0.3 mm - -
Hour Temp Dew Point Humidity Winds Wind Gusts Pressure Precip Precip Rate Daily Precip Total
05:00 PM 31.8°F-0.1°C 28.7°F-1.8°C 88% 3.5 mph SSE5.6 kmh SSE 5.8 mph9.3 kmh 30.02 in1016.6 mb - 0.00 in0.0 mm 0.01 in0.3 mm
04:50 PM 31.9°F-0.1°C 28.8°F-1.8°C 88% 4.6 mph ESE7.4 kmh ESE 12.7 mph20.4 kmh 30.00 in1015.9 mb - 0.00 in0.0 mm 0.01 in0.3 mm
04:40 PM 31.9°F-0.1°C 28.8°F-1.8°C 88% 3.5 mph E5.6 kmh E 9.2 mph14.8 kmh 29.99 in1015.6 mb - 0.00 in0.0 mm 0.01 in0.3 mm
04:30 PM 31.9°F-0.1°C 28.8°F-1.8°C 88% 5.8 mph SE9.3 kmh SE 8.1 mph13.0 kmh 29.99 in1015.6 mb - 0.00 in0.0 mm 0.01 in0.3 mm
04:20 PM 31.9°F-0.1°C 28.8°F-1.8°C 88% 6.9 mph ESE11.1 kmh ESE 15.0 mph24.1 kmh 29.99 in1015.6 mb - 0.00 in0.0 mm 0.01 in0.3 mm
04:10 PM 31.9°F-0.1°C 28.8°F-1.8°C 88% 5.8 mph SE9.3 kmh SE 8.1 mph13.0 kmh 29.99 in1015.6 mb - 0.00 in0.0 mm 0.01 in0.3 mm
04:00 PM 32.0°F0.0°C 28.8°F-1.8°C 88% 3.5 mph SSE5.6 kmh SSE 11.5 mph18.5 kmh 29.99 in1015.6 mb - 0.00 in0.0 mm 0.01 in0.3 mm
03:50 PM 32.1°F0.1°C 28.7°F-1.8°C 87% 6.9 mph SE11.1 kmh SE 11.5 mph18.5 kmh 29.98 in1015.2 mb - 0.00 in0.0 mm 0.01 in0.3 mm
03:40 PM 32.3°F0.2°C 28.8°F-1.8°C 87% 6.9 mph ESE11.1 kmh ESE 10.4 mph16.7 kmh 30.00 in1015.9 mb - 0.00 in0.0 mm 0.01 in0.3 mm
03:30 PM 32.4°F0.2°C 29.0°F-1.7°C 87% 5.8 mph ESE9.3 kmh ESE 11.5 mph18.5 kmh 30.00 in1015.9 mb - 0.00 in0.0 mm 0.01 in0.3 mm
03:20 PM 32.7°F0.4°C 29.3°F-1.5°C 87% 6.9 mph E11.1 kmh E 10.4 mph16.7 kmh 30.01 in1016.3 mb - 0.00 in0.0 mm 0.01 in0.3 mm
03:10 PM 32.8°F0.4°C 29.6°F-1.3°C 88% 4.6 mph E7.4 kmh E 6.9 mph11.1 kmh 30.02 in1016.6 mb - 0.00 in0.0 mm 0.01 in0.3 mm
03:00 PM 33.0°F0.6°C 29.5°F-1.4°C 87% 5.8 mph ESE9.3 kmh ESE 11.5 mph18.5 kmh 30.03 in1016.9 mb - 0.00 in0.0 mm 0.01 in0.3 mm
02:50 PM 33.1°F0.6°C 29.4°F-1.4°C 86% 5.8 mph E9.3 kmh E 13.8 mph22.2 kmh 30.04 in1017.3 mb - 0.00 in0.0 mm 0.01 in0.3 mm
02:40 PM 33.3°F0.7°C 29.3°F-1.5°C 85% 3.5 mph E5.6 kmh E 8.1 mph13.0 kmh 30.07 in1018.3 mb - 0.00 in0.0 mm 0.01 in0.3 mm
02:30 PM 33.3°F0.7°C 29.0°F-1.7°C 84% 4.6 mph E7.4 kmh E 11.5 mph18.5 kmh 30.09 in1019.0 mb - 0.00 in0.0 mm 0.01 in0.3 mm
02:20 PM 33.7°F0.9°C 29.1°F-1.6°C 83% 3.5 mph ENE5.6 kmh ENE 4.6 mph7.4 kmh 30.09 in1019.0 mb - 0.00 in0.0 mm 0.01 in0.3 mm
02:10 PM 34.0°F1.1°C 29.1°F-1.6°C 82% 3.5 mph ENE5.6 kmh ENE 6.9 mph11.1 kmh 30.10 in1019.3 mb - 0.00 in0.0 mm 0.01 in0.3 mm
02:00 PM 34.4°F1.3°C 29.2°F-1.6°C 81% 3.5 mph E5.6 kmh E 4.6 mph7.4 kmh 30.11 in1019.6 mb - 0.00 in0.0 mm 0.01 in0.3 mm
01:50 PM 35.4°F1.9°C 29.8°F-1.2°C 80% 4.6 mph ESE7.4 kmh ESE 9.2 mph14.8 kmh 30.12 in1020.0 mb - 0.01 in0.3 mm 0.01 in0.3 mm
01:40 PM 35.4°F1.9°C 28.3°F-2.1°C 75% 2.3 mph E3.7 kmh E 3.5 mph5.6 kmh 30.12 in1020.0 mb - 0.00 in0.0 mm 0.00 in0.0 mm
01:30 PM 35.2°F1.8°C 28.1°F-2.2°C 75% 5.8 mph SSE9.3 kmh SSE 8.1 mph13.0 kmh 30.12 in1020.0 mb - 0.00 in0.0 mm 0.00 in0.0 mm
01:20 PM 35.1°F1.7°C 28.6°F-1.9°C 77% 3.5 mph E5.6 kmh E 6.9 mph11.1 kmh 30.13 in1020.3 mb - 0.00 in0.0 mm 0.00 in0.0 mm
01:10 PM 34.8°F1.6°C 29.3°F-1.5°C 80% 1.2 mph SE1.9 kmh SE 3.5 mph5.6 kmh 30.15 in1021.0 mb - 0.00 in0.0 mm 0.00 in0.0 mm
01:00 PM 34.3°F1.3°C 28.8°F-1.8°C 80% 2.3 mph ESE3.7 kmh ESE 2.3 mph3.7 kmh 30.14 in1020.7 mb - 0.00 in0.0 mm 0.00 in0.0 mm
12:50 PM 33.8°F1.0°C 28.8°F-1.8°C 82% 2.3 mph E3.7 kmh E 6.9 mph11.1 kmh 30.16 in1021.3 mb - 0.00 in0.0 mm 0.00 in0.0 mm
12:40 PM 33.3°F0.7°C 28.7°F-1.8°C 83% 1.2 mph SE1.9 kmh SE 2.3 mph3.7 kmh 30.18 in1022.0 mb - 0.00 in0.0 mm 0.00 in0.0 mm
12:30 PM 32.8°F0.4°C 28.8°F-1.8°C 85% 3.5 mph SE5.6 kmh SE 5.8 mph9.3 kmh 30.18 in1022.0 mb - 0.00 in0.0 mm 0.00 in0.0 mm
12:20 PM 32.5°F0.3°C 28.5°F-1.9°C 85% 2.3 mph SE3.7 kmh SE 3.5 mph5.6 kmh 30.19 in1022.4 mb - 0.00 in0.0 mm 0.00 in0.0 mm
12:10 PM 32.1°F0.1°C 28.4°F-2.0°C 86% 2.3 mph SE3.7 kmh SE 3.5 mph5.6 kmh 30.19 in1022.4 mb - 0.00 in0.0 mm 0.00 in0.0 mm
12:00 PM 31.8°F-0.1°C 28.4°F-2.0°C 87% 1.2 mph SE1.9 kmh SE 6.9 mph11.1 kmh 30.21 in1023.0 mb - 0.00 in0.0 mm 0.00 in0.0 mm
11:50 AM 31.5°F-0.3°C 27.8°F-2.3°C 86% 3.5 mph ESE5.6 kmh ESE 3.5 mph5.6 kmh 30.20 in1022.7 mb - 0.00 in0.0 mm 0.00 in0.0 mm
11:40 AM 31.3°F-0.4°C 27.3°F-2.6°C 85% 1.2 mph E1.9 kmh E 2.3 mph3.7 kmh 30.21 in1023.0 mb - 0.00 in0.0 mm 0.00 in0.0 mm
11:30 AM 31.1°F-0.5°C 27.1°F-2.7°C 85% 2.3 mph SE3.7 kmh SE 3.5 mph5.6 kmh 30.22 in1023.4 mb - 0.00 in0.0 mm 0.00 in0.0 mm
11:20 AM 31.0°F-0.6°C 27.0°F-2.8°C 85% 1.2 mph SE1.9 kmh SE 4.6 mph7.4 kmh 30.22 in1023.4 mb - 0.00 in0.0 mm 0.00 in0.0 mm
11:10 AM 30.9°F-0.6°C 27.2°F-2.7°C 86% 1.2 mph SE1.9 kmh SE 3.5 mph5.6 kmh 30.22 in1023.4 mb - 0.00 in0.0 mm 0.00 in0.0 mm
11:00 AM 30.7°F-0.7°C 27.0°F-2.8°C 86% 1.2 mph E1.9 kmh E 3.5 mph5.6 kmh 30.23 in1023.7 mb - 0.00 in0.0 mm 0.00 in0.0 mm
10:50 AM 30.4°F-0.9°C 27.0°F-2.8°C 87% 1.2 mph SSE1.9 kmh SSE 3.5 mph5.6 kmh 30.23 in1023.7 mb - 0.00 in0.0 mm 0.00 in0.0 mm
10:40 AM 30.0°F-1.1°C 26.6°F-3.0°C 87% 3.5 mph SE5.6 kmh SE 4.6 mph7.4 kmh 30.24 in1024.0 mb - 0.00 in0.0 mm 0.00 in0.0 mm
10:30 AM 29.6°F-1.3°C 26.5°F-3.1°C 88% 1.2 mph SE1.9 kmh SE 3.5 mph5.6 kmh 30.23 in1023.7 mb - 0.00 in0.0 mm 0.00 in0.0 mm
10:20 AM 29.2°F-1.6°C 26.1°F-3.3°C 88% 1.2 mph SE1.9 kmh SE 2.3 mph3.7 kmh 30.24 in1024.0 mb - 0.00 in0.0 mm 0.00 in0.0 mm
10:10 AM 28.7°F-1.8°C 25.6°F-3.6°C 88% 1.2 mph SE1.9 kmh SE 3.5 mph5.6 kmh 30.25 in1024.4 mb - 0.00 in0.0 mm 0.00 in0.0 mm
10:00 AM 28.3°F-2.1°C 25.2°F-3.8°C 88% 2.3 mph SSE3.7 kmh SSE 5.8 mph9.3 kmh 30.25 in1024.4 mb - 0.00 in0.0 mm 0.00 in0.0 mm
09:50 AM 28.0°F-2.2°C 24.6°F-4.1°C 87% 1.2 mph SE1.9 kmh SE 1.2 mph1.9 kmh 30.26 in1024.7 mb - 0.00 in0.0 mm 0.00 in0.0 mm
09:40 AM 27.7°F-2.4°C 24.3°F-4.3°C 87% 2.3 mph SE3.7 kmh SE 3.5 mph5.6 kmh 30.27 in1025.1 mb - 0.00 in0.0 mm 0.00 in0.0 mm
09:30 AM 27.4°F-2.6°C 24.0°F-4.4°C 87% 1.2 mph S1.9 kmh S 4.6 mph7.4 kmh 30.27 in1025.1 mb - 0.00 in0.0 mm 0.00 in0.0 mm
09:20 AM 27.0°F-2.8°C 23.6°F-4.7°C 87% 1.2 mph SE1.9 kmh SE 2.3 mph3.7 kmh 30.27 in1025.1 mb - 0.00 in0.0 mm 0.00 in0.0 mm
09:10 AM 26.7°F-2.9°C 23.3°F-4.8°C 87% 1.2 mph ESE1.9 kmh ESE 2.3 mph3.7 kmh 30.28 in1025.4 mb - 0.00 in0.0 mm 0.00 in0.0 mm
09:00 AM 26.4°F-3.1°C 23.1°F-4.9°C 87% 1.2 mph ESE1.9 kmh ESE 2.3 mph3.7 kmh 30.28 in1025.4 mb - 0.00 in0.0 mm 0.00 in0.0 mm
08:50 AM 26.2°F-3.2°C 22.9°F-5.1°C 87% 1.2 mph ESE1.9 kmh ESE 3.5 mph5.6 kmh 30.29 in1025.7 mb - 0.00 in0.0 mm 0.00 in0.0 mm
08:40 AM 26.0°F-3.3°C 22.7°F-5.2°C 87% Calm Calm 1.2 mph1.9 kmh 30.29 in1025.7 mb - 0.00 in0.0 mm 0.00 in0.0 mm
08:30 AM 25.8°F-3.4°C 22.7°F-5.2°C 88% 1.2 mph ESE1.9 kmh ESE 1.2 mph1.9 kmh 30.29 in1025.7 mb - 0.00 in0.0 mm 0.00 in0.0 mm
08:20 AM 25.7°F-3.5°C 22.6°F-5.2°C 88% Calm Calm 1.2 mph1.9 kmh 30.30 in1026.1 mb - 0.00 in0.0 mm 0.00 in0.0 mm
08:10 AM 25.5°F-3.6°C 22.4°F-5.3°C 88% Calm Calm -- 30.30 in1026.1 mb - 0.00 in0.0 mm 0.00 in0.0 mm
08:00 AM 25.5°F-3.6°C 22.7°F-5.2°C 89% Calm Calm -- 30.30 in1026.1 mb - 0.00 in0.0 mm 0.00 in0.0 mm
07:50 AM 25.4°F-3.7°C 22.6°F-5.2°C 89% 1.2 mph SSE1.9 kmh SSE 1.2 mph1.9 kmh 30.30 in1026.1 mb - 0.00 in0.0 mm 0.00 in0.0 mm
07:40 AM 25.3°F-3.7°C 22.5°F-5.3°C 89% 1.2 mph SSE1.9 kmh SSE 2.3 mph3.7 kmh 30.30 in1026.1 mb - 0.00 in0.0 mm 0.00 in0.0 mm
07:30 AM 25.3°F-3.7°C 22.2°F-5.4°C 88% 1.2 mph SE1.9 kmh SE 1.2 mph1.9 kmh 30.30 in1026.1 mb - 0.00 in0.0 mm 0.00 in0.0 mm
07:20 AM 25.5°F-3.6°C 22.5°F-5.3°C 88% Calm Calm 1.2 mph1.9 kmh 30.31 in1026.4 mb - 0.00 in0.0 mm 0.00 in0.0 mm
07:10 AM 25.8°F-3.4°C 22.5°F-5.3°C 87% Calm Calm 1.2 mph1.9 kmh 30.32 in1026.8 mb - 0.00 in0.0 mm 0.00 in0.0 mm
07:00 AM 26.1°F-3.3°C 23.0°F-5.0°C 88% Calm Calm 1.2 mph1.9 kmh 30.31 in1026.4 mb - 0.00 in0.0 mm 0.00 in0.0 mm
06:50 AM 26.4°F-3.1°C 23.6°F-4.7°C 89% Calm Calm 1.2 mph1.9 kmh 30.33 in1027.1 mb - 0.00 in0.0 mm 0.00 in0.0 mm
06:40 AM 26.5°F-3.1°C 24.0°F-4.4°C 90% Calm Calm 1.2 mph1.9 kmh 30.33 in1027.1 mb - 0.00 in0.0 mm 0.00 in0.0 mm
06:30 AM 26.6°F-3.0°C 24.3°F-4.3°C 91% 1.2 mph SSE1.9 kmh SSE 2.3 mph3.7 kmh 30.32 in1026.8 mb - 0.00 in0.0 mm 0.00 in0.0 mm
06:20 AM 26.3°F-3.2°C 24.5°F-4.2°C 93% 1.2 mph SE1.9 kmh SE 3.5 mph5.6 kmh 30.31 in1026.4 mb - 0.00 in0.0 mm 0.00 in0.0 mm
06:10 AM 25.2°F-3.8°C 23.8°F-4.6°C 94% 1.2 mph ESE1.9 kmh ESE 4.6 mph7.4 kmh 30.30 in1026.1 mb - 0.00 in0.0 mm 0.00 in0.0 mm
06:00 AM 23.8°F-4.6°C 22.3°F-5.4°C 94% 2.3 mph E3.7 kmh E 5.8 mph9.3 kmh 30.29 in1025.7 mb - 0.00 in0.0 mm 0.00 in0.0 mm
05:50 AM 23.0°F-5.0°C 21.6°F-5.8°C 94% 1.2 mph E1.9 kmh E 2.3 mph3.7 kmh 30.32 in1026.8 mb - 0.00 in0.0 mm 0.00 in0.0 mm
05:40 AM 22.1°F-5.5°C 20.6°F-6.3°C 94% Calm Calm 1.2 mph1.9 kmh 30.32 in1026.8 mb - 0.00 in0.0 mm 0.00 in0.0 mm
05:30 AM 21.5°F-5.8°C 20.0°F-6.7°C 94% Calm Calm 1.2 mph1.9 kmh 30.34 in1027.4 mb - 0.00 in0.0 mm 0.00 in0.0 mm
05:20 AM 21.0°F-6.1°C 19.6°F-6.9°C 94% 1.2 mph SE1.9 kmh SE 1.2 mph1.9 kmh 30.34 in1027.4 mb - 0.00 in0.0 mm 0.00 in0.0 mm
05:10 AM 20.7°F-6.3°C 19.2°F-7.1°C 94% 1.2 mph SE1.9 kmh SE 1.2 mph1.9 kmh 30.34 in1027.4 mb - 0.00 in0.0 mm 0.00 in0.0 mm
05:00 AM 20.3°F-6.5°C 18.8°F-7.3°C 94% 1.2 mph SE1.9 kmh SE 2.3 mph3.7 kmh 30.35 in1027.8 mb - 0.00 in0.0 mm 0.00 in0.0 mm
04:50 AM 19.8°F-6.8°C 18.4°F-7.6°C 94% 1.2 mph SE1.9 kmh SE 1.2 mph1.9 kmh 30.36 in1028.1 mb - 0.00 in0.0 mm 0.00 in0.0 mm
04:40 AM 19.2°F-7.1°C 17.8°F-7.9°C 94% 1.2 mph SE1.9 kmh SE 2.3 mph3.7 kmh 30.36 in1028.1 mb - 0.00 in0.0 mm 0.00 in0.0 mm
04:30 AM 19.1°F-7.2°C 17.4°F-8.1°C 93% 1.2 mph SE1.9 kmh SE 2.3 mph3.7 kmh 30.36 in1028.1 mb - 0.00 in0.0 mm 0.00 in0.0 mm
04:20 AM 18.9°F-7.3°C 17.2°F-8.2°C 93% 1.2 mph SE1.9 kmh SE 2.3 mph3.7 kmh 30.35 in1027.8 mb - 0.00 in0.0 mm 0.00 in0.0 mm
04:10 AM 18.8°F-7.3°C 17.1°F-8.3°C 93% Calm Calm 1.2 mph1.9 kmh 30.36 in1028.1 mb - 0.00 in0.0 mm 0.00 in0.0 mm
04:00 AM 18.7°F-7.4°C 17.0°F-8.3°C 93% Calm Calm -- 30.37 in1028.4 mb - 0.00 in0.0 mm 0.00 in0.0 mm
03:50 AM 18.4°F-7.6°C 17.0°F-8.3°C 94% Calm Calm -- 30.37 in1028.4 mb - 0.00 in0.0 mm 0.00 in0.0 mm
03:40 AM 18.0°F-7.8°C 16.3°F-8.7°C 93% Calm Calm -- 30.37 in1028.4 mb - 0.00 in0.0 mm 0.00 in0.0 mm
03:30 AM 17.7°F-7.9°C 16.0°F-8.9°C 93% Calm Calm -- 30.38 in1028.8 mb - 0.00 in0.0 mm 0.00 in0.0 mm
03:20 AM 17.7°F-7.9°C 16.0°F-8.9°C 93% Calm Calm -- 30.38 in1028.8 mb - 0.00 in0.0 mm 0.00 in0.0 mm
03:10 AM 17.7°F-7.9°C 16.0°F-8.9°C 93% Calm Calm -- 30.38 in1028.8 mb - 0.00 in0.0 mm 0.00 in0.0 mm
03:00 AM 17.7°F-7.9°C 15.8°F-9.0°C 92% Calm Calm -- 30.38 in1028.8 mb - 0.00 in0.0 mm 0.00 in0.0 mm
02:50 AM 17.9°F-7.8°C 15.9°F-8.9°C 92% Calm Calm -- 30.38 in1028.8 mb - 0.00 in0.0 mm 0.00 in0.0 mm
02:40 AM 18.2°F-7.7°C 16.5°F-8.6°C 93% Calm Calm -- 30.38 in1028.8 mb - 0.00 in0.0 mm 0.00 in0.0 mm
02:30 AM 18.4°F-7.6°C 16.7°F-8.5°C 93% Calm Calm -- 30.39 in1029.1 mb - 0.00 in0.0 mm 0.00 in0.0 mm
02:20 AM 18.5°F-7.5°C 16.6°F-8.6°C 92% Calm Calm -- 30.39 in1029.1 mb - 0.00 in0.0 mm 0.00 in0.0 mm
02:10 AM 18.8°F-7.3°C 17.1°F-8.3°C 93% Calm Calm -- 30.39 in1029.1 mb - 0.00 in0.0 mm 0.00 in0.0 mm
02:00 AM 19.0°F-7.2°C 17.3°F-8.2°C 93% Calm Calm -- 30.39 in1029.1 mb - 0.00 in0.0 mm 0.00 in0.0 mm
01:50 AM 19.0°F-7.2°C 17.3°F-8.2°C 93% Calm Calm -- 30.39 in1029.1 mb - 0.00 in0.0 mm 0.00 in0.0 mm
01:40 AM 19.1°F-7.2°C 17.4°F-8.1°C 93% Calm Calm -- 30.39 in1029.1 mb - 0.00 in0.0 mm 0.00 in0.0 mm
01:30 AM 19.2°F-7.1°C 17.5°F-8.1°C 93% Calm Calm -- 30.39 in1029.1 mb - 0.00 in0.0 mm 0.00 in0.0 mm
01:20 AM 19.3°F-7.1°C 17.6°F-8.0°C 93% Calm Calm -- 30.40 in1029.5 mb - 0.00 in0.0 mm 0.00 in0.0 mm
01:10 AM 19.3°F-7.1°C 17.6°F-8.0°C 93% Calm Calm -- 30.40 in1029.5 mb - 0.00 in0.0 mm 0.00 in0.0 mm
01:00 AM 19.1°F-7.2°C 17.2°F-8.2°C 92% Calm Calm 1.2 mph1.9 kmh 30.40 in1029.5 mb - 0.00 in0.0 mm 0.00 in0.0 mm
12:50 AM 19.4°F-7.0°C 17.5°F-8.1°C 92% Calm Calm -- 30.40 in1029.5 mb - 0.00 in0.0 mm 0.00 in0.0 mm
12:40 AM 19.5°F-6.9°C 17.6°F-8.0°C 92% Calm Calm 1.2 mph1.9 kmh 30.40 in1029.5 mb - 0.00 in0.0 mm 0.00 in0.0 mm
12:30 AM 19.7°F-6.8°C 18.0°F-7.8°C 93% Calm Calm -- 30.40 in1029.5 mb - 0.00 in0.0 mm 0.00 in0.0 mm
12:20 AM 19.8°F-6.8°C 18.1°F-7.7°C 93% Calm Calm -- 30.40 in1029.5 mb - 0.00 in0.0 mm 0.00 in0.0 mm
12:10 AM 19.7°F-6.8°C 18.0°F-7.8°C 93% Calm Calm -- 30.40 in1029.5 mb - 0.00 in0.0 mm 0.00 in0.0 mm
12:00 AM 19.6°F-6.9°C 17.7°F-7.9°C 92% Calm Calm 1.2 mph1.9 kmh 30.39 in1029.1 mb - 0.00 in0.0 mm 0.00 in0.0 mm